Relevés horaires Beauvechain (Belgique)


Relevés horaires à Beauvechain - Jeudi 09 Avr. 2020
Heure UTC1 Température [°C] Vent [km/h] Hum. [%] Pres.4 [hPa] Visi. [Km] Nébu. [octa] Préc.5 [mm] Cond.
2m. Res. Ros. Dir.2 Vit. Moy. Raf.3
23:00 11.6 11.6 6.2 NE 3.7 -- 5.6 69 1026.4(0.2/3h) 19 -- -- --
22:00 11.9 11.9 5.8 NE 3.7 -- 5.6 66 1026.4(0.6/3h) 20 -- -- --
21:00 11.7 11.7 5.3 N 3.7 -- 7.4 65 1026.4(1.3/3h) 20 -- -- --
20:00 14.4 14.4 5.5 ENE 3.7 -- 5.6 55 1026(1.4/3h) 17 -- -- --
19:00 14.8 14.8 6.0 NE 3.7 -- 7.4 56 1025.5(1.1/3h) 20 -- -- --
18:00 17.1 17.1 7.1 NE 5.6 -- 13.0 52 1024.7(0.4/3h) 20 -- -- --
17:00 18.8 18.8 7.9 NE 7.4 -- 13.0 49 1024.2(-0.3/3h) 18 -- -- --
16:00 20.1 20.1 7.3 NNE 7.4 -- 13.0 43 1024(-0.5/3h) 18 -- -- --
15:00 20.7 20.7 8.0 NE 5.6 -- 11.1 44 1024(-0.8/3h) 20 0/8 -- --
14:00 21.4 21.4 10.1 NE 5.6 -- 11.1 49 1024.4(-0.7/3h) 15 1/8 -- --
13:00 20.6 20.6 8.9 NNE 5.6 -- 7.4 47 1024.7(-0.6/3h) 15 0/8 -- --
12:00 19.7 19.7 9.6 N 3.7 -- 11.1 52 1025(-0.3/3h) 15 0/8 -- --
11:00 18.6 18.6 10.1 NE 5.6 -- 11.1 58 1025.4(0.3/3h) 15 1/8 -- --
10:00 17.2 17.2 9.3 ENE 5.6 -- 9.3 60 1025.5(0.8/3h) 12 1/8 -- --
09:00 15.9 15.9 9.3 NE 5.6 -- 7.4 65 1025.5(1.2/3h) 12 0/8 -- --
08:00 13.6 13.6 8.9 ENE 3.7 -- 7.4 73 1025.2(1.6/3h) 8 0/8 -- --
07:00 11.3 11.3 9.2 NE 3.7 -- 5.6 87 1025(1.4/3h) 5 0/8 -- Du brouillard ou du brouillard glacé (plus correctement designé sous le nom de brume) est observé et la visibilité n'est ni inférieure à 5/8 de mille ni supérieure à 6 milles
06:00 9.6 9.6 7.6 NNO 1.9 -- 1.9 87 1024.7(1.3/3h) 5 0/8 -- Du brouillard ou du brouillard glacé (plus correctement designé sous le nom de brume) est observé et la visibilité n'est ni inférieure à 5/8 de mille ni supérieure à 6 milles
05:00 9.4 9.4 6.2 NNO 0.0 -- 1.9 80 1023.8(0.5/3h) 9 -- -- --
04:00 11.0 11.0 6.0 NNO 1.9 -- 1.9 71 1023.5(0.0/3h) 12 -- -- --
03:00 10.9 10.9 4.9 NNO 0.0 -- 1.9 66 1023.2(-0.5/3h) 18 -- -- --
02:00 13.8 13.8 5.7 NNO 0.0 -- 1.9 58 1023.1(-0.4/3h) 15 -- -- --
01:00 14.8 14.8 3.7 NNO 1.9 -- 1.9 47 1023.2(-0.1/3h) 18 -- -- --
00:00 13.8 13.8 3.5 NNO 1.9 -- 5.6 50 1023.7(0.2/3h) 20 -- -- --

1 Coordinated Universal Time. Actuellement il est 11:00 locale et 09:00 UTC.

2 Le vent souffle depuis la direction indiquée vers la direction oposée.

3 Les rafales max. sont disponible 40 min après l'heure du relevé.

4 Pour les stations d'altitude (plus de 600m) le géopotentiel du niveau le plus proche de la pression obligatoire est indiqué.

5 Les stations disposant d'un diffuseur peuvent indiquer "trace". Cela signifie que des précipitations ont touchés le sol mais que la quantité est inférieure à 0.1 mm.

Récapitulatif de la journée
Température [°C] Vent [km/h] Ensoleillement4 [h] Precipitations totale5 [mm] Pression [Hpa]
Min1 Max.2 Moy.3 Max. Min Max.
8.7 21.5 0 13.0 0 h 0 min 0 1023.1 1026.4

1 Température minimale relevée entre 18:00 UTC la veille et 18:00 UTC le jour donné.

2 Température maximale relevée entre 06:00 UTC le jour donné et 06:00 UTC le lendemain.

3 Vent moyen de la journée basé sur les relevés horaires.

4 Ensoleillement en heures relevé entre 06:00 UTC la veille et 06:00 UTC le jour donné.

5 Précipitations totales tombées entre 06:00 UTC la jour donné et 06:00 UTC le lendemain.

Graphiques horaires